Coleman Falls, Virginia
Current Conditions -  °F | °C
As of 1:54 PM on Thursday 23 Oct 2014 (Local Time) from KLYH Reporting Station
Clear Clear  
Wind Chill: 65°   Ceiling: Unl
Heat Index: 65°   Visibility: 10mi
Dew Point: 42°   Wind: 13mph
Humidity: 43%   Direction: 310°NW
Pressure: 29.97"   Gusts: 17mph
Location:  37.5°N, 79.3°W
Report Text: KLYH 231754Z 31011G15KT 10SM CLR 18/06 A2997 RMK AO2 SLP146 T01830056 10183 20094 58022
Loading
Personal Weather Stations






























Interactive Weather Map
Tropical Storm Tracking
New forecast layout! Learn more

10-Day Weather Forecast

Advertisements
Track Severe Weather on mobile